sensor_id;sensor_type;location;lat;lon;timestamp;temperature;humidity
35523;DHT22;61478;50.820;4.330;2023-04-03T00:02:18;5.90;99.90
35523;DHT22;61478;50.820;4.330;2023-04-03T00:04:44;5.90;99.90
35523;DHT22;61478;50.820;4.330;2023-04-03T00:07:11;5.90;99.90
35523;DHT22;61478;50.820;4.330;2023-04-03T00:09:38;6.00;99.90
35523;DHT22;61478;50.820;4.330;2023-04-03T00:12:03;6.00;99.90
35523;DHT22;61478;50.820;4.330;2023-04-03T00:14:29;6.00;99.90
35523;DHT22;61478;50.820;4.330;2023-04-03T00:16:55;5.90;99.90
35523;DHT22;61478;50.820;4.330;2023-04-03T00:19:21;5.90;99.90
35523;DHT22;61478;50.820;4.330;2023-04-03T00:21:47;6.00;99.90
35523;DHT22;61478;50.820;4.330;2023-04-03T00:24:13;5.90;99.90
35523;DHT22;61478;50.820;4.330;2023-04-03T00:26:39;5.90;99.90
35523;DHT22;61478;50.820;4.330;2023-04-03T00:29:05;5.80;99.90
35523;DHT22;61478;50.820;4.330;2023-04-03T00:31:30;5.80;99.90
35523;DHT22;61478;50.820;4.330;2023-04-03T00:33:56;5.70;99.90
35523;DHT22;61478;50.820;4.330;2023-04-03T00:36:22;5.60;99.90
35523;DHT22;61478;50.820;4.330;2023-04-03T00:38:48;5.60;99.90
35523;DHT22;61478;50.820;4.330;2023-04-03T00:41:14;5.60;99.90
35523;DHT22;61478;50.820;4.330;2023-04-03T00:43:40;5.60;99.90
35523;DHT22;61478;50.820;4.330;2023-04-03T00:46:06;5.80;99.90
35523;DHT22;61478;50.820;4.330;2023-04-03T00:48:36;5.90;99.90
35523;DHT22;61478;50.820;4.330;2023-04-03T00:51:07;6.00;99.90
35523;DHT22;61478;50.820;4.330;2023-04-03T00:53:59;5.70;99.90
35523;DHT22;61478;50.820;4.330;2023-04-03T00:56:27;5.80;99.90
35523;DHT22;61478;50.820;4.330;2023-04-03T00:59:02;6.00;99.90
35523;DHT22;61478;50.820;4.330;2023-04-03T01:01:29;6.10;99.90
35523;DHT22;61478;50.820;4.330;2023-04-03T01:03:56;6.10;99.90
35523;DHT22;61478;50.820;4.330;2023-04-03T01:06:29;6.10;99.90
35523;DHT22;61478;50.820;4.330;2023-04-03T01:08:59;6.30;99.90
35523;DHT22;61478;50.820;4.330;2023-04-03T01:11:25;6.30;99.90
35523;DHT22;61478;50.820;4.330;2023-04-03T01:13:52;6.30;99.90
35523;DHT22;61478;50.820;4.330;2023-04-03T01:16:18;6.20;99.90
35523;DHT22;61478;50.820;4.330;2023-04-03T01:18:45;6.30;99.90
35523;DHT22;61478;50.820;4.330;2023-04-03T01:21:28;6.30;99.90
35523;DHT22;61478;50.820;4.330;2023-04-03T01:24:22;6.20;99.90
35523;DHT22;61478;50.820;4.330;2023-04-03T01:26:51;6.40;99.90
35523;DHT22;61478;50.820;4.330;2023-04-03T01:29:17;6.10;99.90
35523;DHT22;61478;50.820;4.330;2023-04-03T01:31:53;6.00;99.90
35523;DHT22;61478;50.820;4.330;2023-04-03T01:34:20;5.90;99.90
35523;DHT22;61478;50.820;4.330;2023-04-03T01:36:45;5.90;99.90
35523;DHT22;61478;50.820;4.330;2023-04-03T01:39:12;5.80;99.90
35523;DHT22;61478;50.820;4.330;2023-04-03T01:41:38;5.70;99.90
35523;DHT22;61478;50.820;4.330;2023-04-03T01:44:04;5.60;99.90
35523;DHT22;61478;50.820;4.330;2023-04-03T01:46:30;5.60;99.90
35523;DHT22;61478;50.820;4.330;2023-04-03T01:48:56;5.60;99.90
35523;DHT22;61478;50.820;4.330;2023-04-03T01:51:22;5.60;99.90
35523;DHT22;61478;50.820;4.330;2023-04-03T01:53:48;5.70;99.90
35523;DHT22;61478;50.820;4.330;2023-04-03T01:56:14;5.90;99.90
35523;DHT22;61478;50.820;4.330;2023-04-03T01:58:40;6.00;99.90
35523;DHT22;61478;50.820;4.330;2023-04-03T02:01:06;6.00;99.90
35523;DHT22;61478;50.820;4.330;2023-04-03T02:03:32;6.10;99.90
35523;DHT22;61478;50.820;4.330;2023-04-03T02:05:58;6.00;99.90
35523;DHT22;61478;50.820;4.330;2023-04-03T02:08:24;6.10;99.90
35523;DHT22;61478;50.820;4.330;2023-04-03T02:10:51;6.10;99.90
35523;DHT22;61478;50.820;4.330;2023-04-03T02:13:17;6.10;99.90
35523;DHT22;61478;50.820;4.330;2023-04-03T02:15:43;6.10;99.90
35523;DHT22;61478;50.820;4.330;2023-04-03T02:18:11;6.10;99.90
35523;DHT22;61478;50.820;4.330;2023-04-03T02:20:37;6.00;99.90
35523;DHT22;61478;50.820;4.330;2023-04-03T02:23:03;6.10;99.90
35523;DHT22;61478;50.820;4.330;2023-04-03T02:25:30;6.10;99.90
35523;DHT22;61478;50.820;4.330;2023-04-03T02:27:57;6.20;99.90
35523;DHT22;61478;50.820;4.330;2023-04-03T02:30:23;6.10;99.90
35523;DHT22;61478;50.820;4.330;2023-04-03T02:32:48;6.10;99.90
35523;DHT22;61478;50.820;4.330;2023-04-03T02:35:14;6.10;99.90
35523;DHT22;61478;50.820;4.330;2023-04-03T02:37:40;6.00;99.90
35523;DHT22;61478;50.820;4.330;2023-04-03T02:40:07;5.90;99.90
35523;DHT22;61478;50.820;4.330;2023-04-03T02:42:33;5.90;99.90
35523;DHT22;61478;50.820;4.330;2023-04-03T02:44:59;5.70;99.90
35523;DHT22;61478;50.820;4.330;2023-04-03T02:47:26;5.80;99.90
35523;DHT22;61478;50.820;4.330;2023-04-03T02:49:53;5.90;99.90
35523;DHT22;61478;50.820;4.330;2023-04-03T02:52:19;5.90;99.90
35523;DHT22;61478;50.820;4.330;2023-04-03T02:54:45;5.80;99.90
35523;DHT22;61478;50.820;4.330;2023-04-03T02:57:11;5.80;99.90
35523;DHT22;61478;50.820;4.330;2023-04-03T02:59:37;5.80;99.90
35523;DHT22;61478;50.820;4.330;2023-04-03T03:02:07;5.80;99.90
35523;DHT22;61478;50.820;4.330;2023-04-03T03:04:33;5.90;99.90
35523;DHT22;61478;50.820;4.330;2023-04-03T03:06:59;5.90;99.90
35523;DHT22;61478;50.820;4.330;2023-04-03T03:09:25;6.00;99.90
35523;DHT22;61478;50.820;4.330;2023-04-03T03:11:52;6.00;99.90
35523;DHT22;61478;50.820;4.330;2023-04-03T03:14:18;6.00;99.90
35523;DHT22;61478;50.820;4.330;2023-04-03T03:16:44;5.90;99.90
35523;DHT22;61478;50.820;4.330;2023-04-03T03:19:10;6.00;99.90
35523;DHT22;61478;50.820;4.330;2023-04-03T03:21:36;5.70;99.90
35523;DHT22;61478;50.820;4.330;2023-04-03T03:24:01;5.70;99.90
35523;DHT22;61478;50.820;4.330;2023-04-03T03:26:28;5.70;99.90
35523;DHT22;61478;50.820;4.330;2023-04-03T03:28:54;5.60;99.90
35523;DHT22;61478;50.820;4.330;2023-04-03T03:31:20;5.30;99.90
35523;DHT22;61478;50.820;4.330;2023-04-03T03:33:46;5.40;99.90
35523;DHT22;61478;50.820;4.330;2023-04-03T03:36:12;5.40;99.90
35523;DHT22;61478;50.820;4.330;2023-04-03T03:38:38;5.20;99.90
35523;DHT22;61478;50.820;4.330;2023-04-03T03:41:04;5.10;99.90
35523;DHT22;61478;50.820;4.330;2023-04-03T03:43:30;5.00;99.90
35523;DHT22;61478;50.820;4.330;2023-04-03T03:45:56;5.00;99.90
35523;DHT22;61478;50.820;4.330;2023-04-03T03:48:22;5.10;99.90
35523;DHT22;61478;50.820;4.330;2023-04-03T03:50:48;5.10;99.90
35523;DHT22;61478;50.820;4.330;2023-04-03T03:53:14;5.20;99.90
35523;DHT22;61478;50.820;4.330;2023-04-03T03:55:41;5.20;99.90
35523;DHT22;61478;50.820;4.330;2023-04-03T03:58:06;5.30;99.90
35523;DHT22;61478;50.820;4.330;2023-04-03T04:00:32;5.30;99.90
35523;DHT22;61478;50.820;4.330;2023-04-03T04:02:58;5.30;99.90
35523;DHT22;61478;50.820;4.330;2023-04-03T04:05:24;5.40;99.90
35523;DHT22;61478;50.820;4.330;2023-04-03T04:07:52;5.30;99.90
35523;DHT22;61478;50.820;4.330;2023-04-03T04:10:18;5.20;99.90
35523;DHT22;61478;50.820;4.330;2023-04-03T04:12:44;5.20;99.90
35523;DHT22;61478;50.820;4.330;2023-04-03T04:15:10;5.20;99.90
35523;DHT22;61478;50.820;4.330;2023-04-03T04:17:36;5.30;99.90
35523;DHT22;61478;50.820;4.330;2023-04-03T04:20:05;5.30;99.90
35523;DHT22;61478;50.820;4.330;2023-04-03T04:22:31;5.30;99.90
35523;DHT22;61478;50.820;4.330;2023-04-03T04:24:57;5.40;99.90
35523;DHT22;61478;50.820;4.330;2023-04-03T04:27:23;5.20;99.90
35523;DHT22;61478;50.820;4.330;2023-04-03T04:29:49;5.10;99.90
35523;DHT22;61478;50.820;4.330;2023-04-03T04:32:14;5.00;99.90
35523;DHT22;61478;50.820;4.330;2023-04-03T04:34:40;5.00;99.90
35523;DHT22;61478;50.820;4.330;2023-04-03T04:37:06;5.00;99.90
35523;DHT22;61478;50.820;4.330;2023-04-03T04:39:32;5.00;99.90
35523;DHT22;61478;50.820;4.330;2023-04-03T04:41:58;4.80;99.90
35523;DHT22;61478;50.820;4.330;2023-04-03T04:44:24;4.90;99.90
35523;DHT22;61478;50.820;4.330;2023-04-03T04:46:50;5.00;99.90
35523;DHT22;61478;50.820;4.330;2023-04-03T04:49:16;5.10;99.90
35523;DHT22;61478;50.820;4.330;2023-04-03T04:51:42;4.60;99.90
35523;DHT22;61478;50.820;4.330;2023-04-03T04:54:07;4.50;99.90
35523;DHT22;61478;50.820;4.330;2023-04-03T04:56:33;4.50;99.90
35523;DHT22;61478;50.820;4.330;2023-04-03T04:59:00;4.50;99.90
35523;DHT22;61478;50.820;4.330;2023-04-03T05:01:26;4.40;99.90
35523;DHT22;61478;50.820;4.330;2023-04-03T05:03:52;4.30;99.90
35523;DHT22;61478;50.820;4.330;2023-04-03T05:06:17;4.00;99.90
35523;DHT22;61478;50.820;4.330;2023-04-03T05:08:43;4.00;99.90
35523;DHT22;61478;50.820;4.330;2023-04-03T05:11:09;4.00;99.90
35523;DHT22;61478;50.820;4.330;2023-04-03T05:13:35;4.10;99.90
35523;DHT22;61478;50.820;4.330;2023-04-03T05:16:01;4.10;99.90
35523;DHT22;61478;50.820;4.330;2023-04-03T05:18:26;4.10;99.90
35523;DHT22;61478;50.820;4.330;2023-04-03T05:20:52;4.30;99.90
35523;DHT22;61478;50.820;4.330;2023-04-03T05:23:18;4.40;99.90
35523;DHT22;61478;50.820;4.330;2023-04-03T05:25:44;4.40;99.90
35523;DHT22;61478;50.820;4.330;2023-04-03T05:28:12;4.50;99.90
35523;DHT22;61478;50.820;4.330;2023-04-03T05:30:38;4.50;99.90
35523;DHT22;61478;50.820;4.330;2023-04-03T05:33:04;4.50;99.90
35523;DHT22;61478;50.820;4.330;2023-04-03T05:35:31;4.60;99.90
35523;DHT22;61478;50.820;4.330;2023-04-03T05:37:57;4.80;99.90
35523;DHT22;61478;50.820;4.330;2023-04-03T05:40:23;4.70;99.90
35523;DHT22;61478;50.820;4.330;2023-04-03T05:42:49;4.40;99.90
35523;DHT22;61478;50.820;4.330;2023-04-03T05:45:15;4.40;99.90
35523;DHT22;61478;50.820;4.330;2023-04-03T05:47:41;4.40;99.90
35523;DHT22;61478;50.820;4.330;2023-04-03T05:50:07;4.10;99.90
35523;DHT22;61478;50.820;4.330;2023-04-03T05:52:36;4.10;99.90
35523;DHT22;61478;50.820;4.330;2023-04-03T05:55:03;3.90;99.90
35523;DHT22;61478;50.820;4.330;2023-04-03T05:57:29;3.70;99.90
35523;DHT22;61478;50.820;4.330;2023-04-03T05:59:55;3.80;99.90
35523;DHT22;61478;50.820;4.330;2023-04-03T06:02:22;4.10;99.90
35523;DHT22;61478;50.820;4.330;2023-04-03T06:04:48;4.20;99.90
35523;DHT22;61478;50.820;4.330;2023-04-03T06:07:16;4.10;99.90
35523;DHT22;61478;50.820;4.330;2023-04-03T06:09:42;4.00;99.90
35523;DHT22;61478;50.820;4.330;2023-04-03T06:12:08;4.00;99.90
35523;DHT22;61478;50.820;4.330;2023-04-03T06:14:34;4.20;99.90
35523;DHT22;61478;50.820;4.330;2023-04-03T06:17:01;4.10;99.90
35523;DHT22;61478;50.820;4.330;2023-04-03T06:19:27;4.30;99.90
35523;DHT22;61478;50.820;4.330;2023-04-03T06:21:53;4.40;99.90
35523;DHT22;61478;50.820;4.330;2023-04-03T06:24:20;4.50;99.90
35523;DHT22;61478;50.820;4.330;2023-04-03T06:26:47;4.40;99.90
35523;DHT22;61478;50.820;4.330;2023-04-03T06:29:14;4.50;99.90
35523;DHT22;61478;50.820;4.330;2023-04-03T06:31:40;4.60;99.90
35523;DHT22;61478;50.820;4.330;2023-04-03T06:34:06;4.60;99.90
35523;DHT22;61478;50.820;4.330;2023-04-03T06:36:34;4.80;99.90
35523;DHT22;61478;50.820;4.330;2023-04-03T06:39:00;5.00;99.90
35523;DHT22;61478;50.820;4.330;2023-04-03T06:41:27;4.90;99.90
35523;DHT22;61478;50.820;4.330;2023-04-03T06:43:52;4.80;99.90
35523;DHT22;61478;50.820;4.330;2023-04-03T06:46:21;4.80;99.90
35523;DHT22;61478;50.820;4.330;2023-04-03T06:48:48;4.80;99.90
35523;DHT22;61478;50.820;4.330;2023-04-03T06:51:28;4.80;99.90
35523;DHT22;61478;50.820;4.330;2023-04-03T06:53:57;4.90;99.90
35523;DHT22;61478;50.820;4.330;2023-04-03T06:56:24;5.00;99.90
35523;DHT22;61478;50.820;4.330;2023-04-03T06:58:52;5.30;99.90
35523;DHT22;61478;50.820;4.330;2023-04-03T07:01:20;5.40;99.90
35523;DHT22;61478;50.820;4.330;2023-04-03T07:03:47;5.60;99.90
35523;DHT22;61478;50.820;4.330;2023-04-03T07:06:15;5.70;99.90
35523;DHT22;61478;50.820;4.330;2023-04-03T07:08:42;5.80;99.90
35523;DHT22;61478;50.820;4.330;2023-04-03T07:11:09;6.00;99.90
35523;DHT22;61478;50.820;4.330;2023-04-03T07:13:36;6.10;99.90
35523;DHT22;61478;50.820;4.330;2023-04-03T07:16:02;6.20;99.90
35523;DHT22;61478;50.820;4.330;2023-04-03T07:18:31;6.40;99.90
35523;DHT22;61478;50.820;4.330;2023-04-03T07:20:57;6.50;99.90
35523;DHT22;61478;50.820;4.330;2023-04-03T07:23:23;6.60;99.90
35523;DHT22;61478;50.820;4.330;2023-04-03T07:25:50;7.00;99.90
35523;DHT22;61478;50.820;4.330;2023-04-03T07:28:17;7.10;99.90
35523;DHT22;61478;50.820;4.330;2023-04-03T07:30:50;7.30;99.90
35523;DHT22;61478;50.820;4.330;2023-04-03T07:33:18;7.50;99.90
35523;DHT22;61478;50.820;4.330;2023-04-03T07:35:44;7.70;99.90
35523;DHT22;61478;50.820;4.330;2023-04-03T07:38:10;7.60;99.90
35523;DHT22;61478;50.820;4.330;2023-04-03T07:40:37;7.40;99.90
35523;DHT22;61478;50.820;4.330;2023-04-03T07:43:04;7.50;99.90
35523;DHT22;61478;50.820;4.330;2023-04-03T07:45:31;7.40;99.90
35523;DHT22;61478;50.820;4.330;2023-04-03T07:47:57;7.30;99.90
35523;DHT22;61478;50.820;4.330;2023-04-03T07:50:23;7.10;99.90
35523;DHT22;61478;50.820;4.330;2023-04-03T07:52:49;6.90;99.90
35523;DHT22;61478;50.820;4.330;2023-04-03T07:55:16;6.80;99.90
35523;DHT22;61478;50.820;4.330;2023-04-03T07:57:42;6.80;99.90
35523;DHT22;61478;50.820;4.330;2023-04-03T08:00:08;6.70;99.90
35523;DHT22;61478;50.820;4.330;2023-04-03T08:02:35;6.80;99.90
35523;DHT22;61478;50.820;4.330;2023-04-03T08:05:01;6.90;99.90
35523;DHT22;61478;50.820;4.330;2023-04-03T08:07:27;7.00;99.90
35523;DHT22;61478;50.820;4.330;2023-04-03T08:09:53;7.20;99.90
35523;DHT22;61478;50.820;4.330;2023-04-03T08:12:19;7.30;99.90
35523;DHT22;61478;50.820;4.330;2023-04-03T08:14:45;7.60;99.90
35523;DHT22;61478;50.820;4.330;2023-04-03T08:17:10;7.70;99.90
35523;DHT22;61478;50.820;4.330;2023-04-03T08:19:39;8.00;99.90
35523;DHT22;61478;50.820;4.330;2023-04-03T08:22:06;8.30;99.90
35523;DHT22;61478;50.820;4.330;2023-04-03T08:24:33;8.50;99.90
35523;DHT22;61478;50.820;4.330;2023-04-03T08:26:58;8.50;99.90
35523;DHT22;61478;50.820;4.330;2023-04-03T08:29:24;8.40;99.90
35523;DHT22;61478;50.820;4.330;2023-04-03T08:31:50;8.50;99.90
35523;DHT22;61478;50.820;4.330;2023-04-03T08:34:16;8.80;99.90
35523;DHT22;61478;50.820;4.330;2023-04-03T08:36:43;9.00;99.90
35523;DHT22;61478;50.820;4.330;2023-04-03T08:39:09;9.30;99.90
35523;DHT22;61478;50.820;4.330;2023-04-03T08:41:36;9.40;99.90
35523;DHT22;61478;50.820;4.330;2023-04-03T08:50:01;9.50;99.90
35523;DHT22;61478;50.820;4.330;2023-04-03T08:52:45;9.90;99.90
35523;DHT22;61478;50.820;4.330;2023-04-03T08:55:28;10.50;99.90
35523;DHT22;61478;50.820;4.330;2023-04-03T09:03:13;10.80;99.90
35523;DHT22;61478;50.820;4.330;2023-04-03T09:06:02;10.60;99.90
35523;DHT22;61478;50.820;4.330;2023-04-03T09:11:26;11.00;99.90
35523;DHT22;61478;50.820;4.330;2023-04-03T09:13:57;11.30;99.90
35523;DHT22;61478;50.820;4.330;2023-04-03T09:19:07;13.20;99.90
35523;DHT22;61478;50.820;4.330;2023-04-03T09:21:39;13.50;99.90
35523;DHT22;61478;50.820;4.330;2023-04-03T09:24:12;14.10;99.90
35523;DHT22;61478;50.820;4.330;2023-04-03T09:26:45;14.70;99.90
35523;DHT22;61478;50.820;4.330;2023-04-03T09:29:17;15.30;99.40
35523;DHT22;61478;50.820;4.330;2023-04-03T09:31:45;15.70;97.70
35523;DHT22;61478;50.820;4.330;2023-04-03T09:36:48;16.60;93.90
35523;DHT22;61478;50.820;4.330;2023-04-03T09:39:25;16.50;92.30
35523;DHT22;61478;50.820;4.330;2023-04-03T09:42:14;16.50;92.50
35523;DHT22;61478;50.820;4.330;2023-04-03T09:44:42;17.10;91.00
35523;DHT22;61478;50.820;4.330;2023-04-03T09:52:38;17.90;86.30
35523;DHT22;61478;50.820;4.330;2023-04-03T09:57:45;18.20;82.80
35523;DHT22;61478;50.820;4.330;2023-04-03T10:00:30;18.40;80.70
35523;DHT22;61478;50.820;4.330;2023-04-03T10:02:58;18.30;77.70
35523;DHT22;61478;50.820;4.330;2023-04-03T10:05:36;17.80;78.10
35523;DHT22;61478;50.820;4.330;2023-04-03T10:10:45;17.80;80.20
35523;DHT22;61478;50.820;4.330;2023-04-03T10:13:14;17.70;79.90
35523;DHT22;61478;50.820;4.330;2023-04-03T10:16:03;17.50;78.70
35523;DHT22;61478;50.820;4.330;2023-04-03T10:18:45;18.00;77.80
35523;DHT22;61478;50.820;4.330;2023-04-03T10:21:29;18.20;79.00
35523;DHT22;61478;50.820;4.330;2023-04-03T10:24:10;18.00;73.50
35523;DHT22;61478;50.820;4.330;2023-04-03T10:26:52;18.40;76.30
35523;DHT22;61478;50.820;4.330;2023-04-03T10:34:37;18.60;71.40
35523;DHT22;61478;50.820;4.330;2023-04-03T10:40:02;18.30;73.10
35523;DHT22;61478;50.820;4.330;2023-04-03T10:45:25;17.90;71.20
35523;DHT22;61478;50.820;4.330;2023-04-03T10:53:13;18.80;68.90
35523;DHT22;61478;50.820;4.330;2023-04-03T10:58:57;18.90;65.80
35523;DHT22;61478;50.820;4.330;2023-04-03T11:01:32;18.60;64.40
35523;DHT22;61478;50.820;4.330;2023-04-03T11:04:00;18.70;64.10
35523;DHT22;61478;50.820;4.330;2023-04-03T11:06:51;18.80;64.20
35523;DHT22;61478;50.820;4.330;2023-04-03T11:09:50;18.60;64.50
35523;DHT22;61478;50.820;4.330;2023-04-03T11:15:02;18.40;62.90
35523;DHT22;61478;50.820;4.330;2023-04-03T11:17:55;18.60;59.80
35523;DHT22;61478;50.820;4.330;2023-04-03T11:20:29;18.10;59.50
35523;DHT22;61478;50.820;4.330;2023-04-03T11:23:10;17.70;58.50
35523;DHT22;61478;50.820;4.330;2023-04-03T11:25:38;17.20;59.30
35523;DHT22;61478;50.820;4.330;2023-04-03T11:28:13;17.00;61.60
35523;DHT22;61478;50.820;4.330;2023-04-03T11:30:50;17.00;60.50
35523;DHT22;61478;50.820;4.330;2023-04-03T11:35:48;16.50;59.60
35523;DHT22;61478;50.820;4.330;2023-04-03T11:38:33;16.50;59.90
35523;DHT22;61478;50.820;4.330;2023-04-03T11:41:06;16.70;62.00
35523;DHT22;61478;50.820;4.330;2023-04-03T11:43:36;16.70;62.70
35523;DHT22;61478;50.820;4.330;2023-04-03T11:46:06;16.90;63.80
35523;DHT22;61478;50.820;4.330;2023-04-03T11:53:43;16.70;62.00
35523;DHT22;61478;50.820;4.330;2023-04-03T12:01:56;16.90;65.70
35523;DHT22;61478;50.820;4.330;2023-04-03T12:04:25;17.30;64.40
35523;DHT22;61478;50.820;4.330;2023-04-03T12:07:01;17.00;62.30
35523;DHT22;61478;50.820;4.330;2023-04-03T12:12:31;17.00;63.00
35523;DHT22;61478;50.820;4.330;2023-04-03T12:17:43;16.80;62.80
35523;DHT22;61478;50.820;4.330;2023-04-03T12:23:29;16.50;59.90
35523;DHT22;61478;50.820;4.330;2023-04-03T12:26:05;16.30;59.20
35523;DHT22;61478;50.820;4.330;2023-04-03T12:28:37;16.50;62.80
35523;DHT22;61478;50.820;4.330;2023-04-03T12:31:05;16.30;61.70
35523;DHT22;61478;50.820;4.330;2023-04-03T12:34:01;16.30;61.30
35523;DHT22;61478;50.820;4.330;2023-04-03T12:39:51;16.30;60.70
35523;DHT22;61478;50.820;4.330;2023-04-03T12:47:35;16.00;55.50
35523;DHT22;61478;50.820;4.330;2023-04-03T12:50:27;15.60;58.20
35523;DHT22;61478;50.820;4.330;2023-04-03T12:55:27;16.20;56.80
35523;DHT22;61478;50.820;4.330;2023-04-03T12:57:53;16.20;56.00
35523;DHT22;61478;50.820;4.330;2023-04-03T13:00:27;16.30;56.20
35523;DHT22;61478;50.820;4.330;2023-04-03T13:02:54;16.00;55.90
35523;DHT22;61478;50.820;4.330;2023-04-03T13:05:21;16.00;57.80
35523;DHT22;61478;50.820;4.330;2023-04-03T13:08:01;16.10;56.50
35523;DHT22;61478;50.820;4.330;2023-04-03T13:10:29;16.10;56.50
35523;DHT22;61478;50.820;4.330;2023-04-03T13:12:57;15.90;55.00
35523;DHT22;61478;50.820;4.330;2023-04-03T13:15:40;15.80;54.50
35523;DHT22;61478;50.820;4.330;2023-04-03T13:18:21;15.70;54.90
35523;DHT22;61478;50.820;4.330;2023-04-03T13:20:48;15.60;55.60
35523;DHT22;61478;50.820;4.330;2023-04-03T13:23:17;15.50;55.60
35523;DHT22;61478;50.820;4.330;2023-04-03T13:25:46;15.40;56.50
35523;DHT22;61478;50.820;4.330;2023-04-03T13:28:16;15.10;54.80
35523;DHT22;61478;50.820;4.330;2023-04-03T13:31:02;15.10;55.20
35523;DHT22;61478;50.820;4.330;2023-04-03T13:33:31;15.00;55.00
35523;DHT22;61478;50.820;4.330;2023-04-03T13:38:32;15.10;54.30
35523;DHT22;61478;50.820;4.330;2023-04-03T13:41:43;15.20;55.00
35523;DHT22;61478;50.820;4.330;2023-04-03T13:43:49;15.20;54.30
35523;DHT22;61478;50.820;4.330;2023-04-03T13:48:44;14.60;53.40
35523;DHT22;61478;50.820;4.330;2023-04-03T13:53:51;14.30;54.60
35523;DHT22;61478;50.820;4.330;2023-04-03T13:56:19;14.30;54.60
35523;DHT22;61478;50.820;4.330;2023-04-03T14:01:37;14.30;55.50
35523;DHT22;61478;50.820;4.330;2023-04-03T14:04:19;13.70;55.10
35523;DHT22;61478;50.820;4.330;2023-04-03T14:06:47;13.60;55.70
35523;DHT22;61478;50.820;4.330;2023-04-03T14:09:13;13.50;56.80
35523;DHT22;61478;50.820;4.330;2023-04-03T14:11:40;13.50;57.20
35523;DHT22;61478;50.820;4.330;2023-04-03T14:14:18;13.60;58.20
35523;DHT22;61478;50.820;4.330;2023-04-03T14:16:50;13.60;57.20
35523;DHT22;61478;50.820;4.330;2023-04-03T14:19:22;13.40;57.50
35523;DHT22;61478;50.820;4.330;2023-04-03T14:21:48;13.40;58.40
35523;DHT22;61478;50.820;4.330;2023-04-03T14:24:14;13.30;58.50
35523;DHT22;61478;50.820;4.330;2023-04-03T14:26:40;13.20;59.10
35523;DHT22;61478;50.820;4.330;2023-04-03T14:29:06;13.10;59.00
35523;DHT22;61478;50.820;4.330;2023-04-03T14:31:32;13.10;58.60
35523;DHT22;61478;50.820;4.330;2023-04-03T14:33:58;13.20;59.80
35523;DHT22;61478;50.820;4.330;2023-04-03T14:36:26;13.10;58.30
35523;DHT22;61478;50.820;4.330;2023-04-03T14:38:53;13.10;58.80
35523;DHT22;61478;50.820;4.330;2023-04-03T14:41:25;13.30;58.70
35523;DHT22;61478;50.820;4.330;2023-04-03T14:43:51;13.30;58.80
35523;DHT22;61478;50.820;4.330;2023-04-03T14:46:30;13.20;58.50
35523;DHT22;61478;50.820;4.330;2023-04-03T14:48:57;13.20;58.00
35523;DHT22;61478;50.820;4.330;2023-04-03T14:51:23;13.30;58.70
35523;DHT22;61478;50.820;4.330;2023-04-03T14:53:49;13.30;57.90
35523;DHT22;61478;50.820;4.330;2023-04-03T14:56:25;13.50;58.40
35523;DHT22;61478;50.820;4.330;2023-04-03T14:58:56;13.60;58.00
35523;DHT22;61478;50.820;4.330;2023-04-03T15:01:23;13.50;57.50
35523;DHT22;61478;50.820;4.330;2023-04-03T15:03:49;13.50;57.70
35523;DHT22;61478;50.820;4.330;2023-04-03T15:06:15;13.60;57.90
35523;DHT22;61478;50.820;4.330;2023-04-03T15:08:43;13.60;58.00
35523;DHT22;61478;50.820;4.330;2023-04-03T15:11:17;13.70;58.60
35523;DHT22;61478;50.820;4.330;2023-04-03T15:13:42;13.50;57.70
35523;DHT22;61478;50.820;4.330;2023-04-03T15:16:19;13.20;57.90
35523;DHT22;61478;50.820;4.330;2023-04-03T15:18:46;13.20;58.90
35523;DHT22;61478;50.820;4.330;2023-04-03T15:21:13;13.30;58.70
35523;DHT22;61478;50.820;4.330;2023-04-03T15:23:39;13.40;57.80
35523;DHT22;61478;50.820;4.330;2023-04-03T15:26:06;13.40;57.00
35523;DHT22;61478;50.820;4.330;2023-04-03T15:28:41;13.50;57.10
35523;DHT22;61478;50.820;4.330;2023-04-03T15:31:07;13.50;56.90
35523;DHT22;61478;50.820;4.330;2023-04-03T15:33:34;13.30;56.70
35523;DHT22;61478;50.820;4.330;2023-04-03T15:36:01;13.20;56.40
35523;DHT22;61478;50.820;4.330;2023-04-03T15:38:27;13.10;56.90
35523;DHT22;61478;50.820;4.330;2023-04-03T15:40:54;13.00;56.90
35523;DHT22;61478;50.820;4.330;2023-04-03T15:43:21;13.00;58.00
35523;DHT22;61478;50.820;4.330;2023-04-03T15:45:47;12.70;57.90
35523;DHT22;61478;50.820;4.330;2023-04-03T15:48:14;12.70;58.20
35523;DHT22;61478;50.820;4.330;2023-04-03T15:50:40;12.60;57.90
35523;DHT22;61478;50.820;4.330;2023-04-03T15:53:06;12.70;58.10
35523;DHT22;61478;50.820;4.330;2023-04-03T15:55:34;12.70;57.70
35523;DHT22;61478;50.820;4.330;2023-04-03T15:58:00;12.70;58.00
35523;DHT22;61478;50.820;4.330;2023-04-03T16:00:27;12.80;58.20
35523;DHT22;61478;50.820;4.330;2023-04-03T16:03:00;13.00;58.60
35523;DHT22;61478;50.820;4.330;2023-04-03T16:05:27;13.10;57.50
35523;DHT22;61478;50.820;4.330;2023-04-03T16:07:53;13.00;58.00
35523;DHT22;61478;50.820;4.330;2023-04-03T16:10:20;13.00;59.60
35523;DHT22;61478;50.820;4.330;2023-04-03T16:12:46;13.10;60.00
35523;DHT22;61478;50.820;4.330;2023-04-03T16:15:12;13.10;60.00
35523;DHT22;61478;50.820;4.330;2023-04-03T16:17:39;13.10;60.90
35523;DHT22;61478;50.820;4.330;2023-04-03T16:20:10;13.10;60.30
35523;DHT22;61478;50.820;4.330;2023-04-03T16:22:37;13.00;60.50
35523;DHT22;61478;50.820;4.330;2023-04-03T16:25:04;12.80;60.80
35523;DHT22;61478;50.820;4.330;2023-04-03T16:27:30;12.80;61.30
35523;DHT22;61478;50.820;4.330;2023-04-03T16:29:59;12.70;62.20
35523;DHT22;61478;50.820;4.330;2023-04-03T16:32:29;12.50;62.60
35523;DHT22;61478;50.820;4.330;2023-04-03T16:34:56;12.50;63.80
35523;DHT22;61478;50.820;4.330;2023-04-03T16:37:22;12.60;64.40
35523;DHT22;61478;50.820;4.330;2023-04-03T16:39:47;12.60;64.30
35523;DHT22;61478;50.820;4.330;2023-04-03T16:42:13;12.50;64.10
35523;DHT22;61478;50.820;4.330;2023-04-03T16:44:39;12.40;65.40
35523;DHT22;61478;50.820;4.330;2023-04-03T16:47:06;12.30;65.80
35523;DHT22;61478;50.820;4.330;2023-04-03T16:49:33;12.30;65.90
35523;DHT22;61478;50.820;4.330;2023-04-03T16:52:01;12.30;66.60
35523;DHT22;61478;50.820;4.330;2023-04-03T16:54:28;12.40;66.90
35523;DHT22;61478;50.820;4.330;2023-04-03T16:56:55;12.40;65.50
35523;DHT22;61478;50.820;4.330;2023-04-03T16:59:21;12.40;66.60
35523;DHT22;61478;50.820;4.330;2023-04-03T17:01:47;12.40;67.60
35523;DHT22;61478;50.820;4.330;2023-04-03T17:04:12;12.30;67.10
35523;DHT22;61478;50.820;4.330;2023-04-03T17:06:39;12.40;67.20
35523;DHT22;61478;50.820;4.330;2023-04-03T17:09:05;12.40;66.80
35523;DHT22;61478;50.820;4.330;2023-04-03T17:11:32;12.50;67.10
35523;DHT22;61478;50.820;4.330;2023-04-03T17:13:58;12.50;67.70
35523;DHT22;61478;50.820;4.330;2023-04-03T17:16:24;12.50;67.60
35523;DHT22;61478;50.820;4.330;2023-04-03T17:18:52;12.40;68.10
35523;DHT22;61478;50.820;4.330;2023-04-03T17:21:19;12.20;68.30
35523;DHT22;61478;50.820;4.330;2023-04-03T17:23:47;12.20;68.80
35523;DHT22;61478;50.820;4.330;2023-04-03T17:26:14;11.90;70.00